Kaktovik, AK

5:20 PM AKST on November 22, 2014 (GMT -0900)
Barter Island LRRS | Change Station
CLOSE
Current Station
Airport
Location: Barter Island,
Elevation: 7 ft
Nearby Weather Stations

Elev 7 ft 70.13 °N, 143.58 °W | Updated 19 minutes ago

Clear
Clear
13 °F
Feels Like -9 °F
N
33
Wind Variable Wind from ESE

Today
High -- | Low -- °F
--% Chance of Precip.
Yesterday
High -- | Low -- °F
Precip. -- in
11:29 AM 1:11 PM
New Moon, 0% visible
Pressure 29.81 in
Visibility 10.0 miles
Clouds Clear
Windchill -9 °F
Dew Point 8 °F
Humidity 81%
Rainfall 0.00 in
Snow Depth Not available.
UV 0 out of 12
Pollen Not available.
Air Quality Not available.
Flu Activity Not available.
METAR PABA 230201Z AUTO 11029KT 10SM CLR M11/M13 A2981 RMK AO2 PK WND 11035/0115 SLP093 T11061133 FZRANO

More Conditions Fewer Conditions

Pressure 29.81 in
Visibility 10.0 miles
Clouds Clear
Windchill -9 °F
Dew Point 8 °F
Humidity 81%
Rainfall 0.00 in
Snow Depth Not available.
UV 0 out of 12
Pollen Not available.
Air Quality Not available.
Flu Activity Not available.
METAR PABA 230201Z AUTO 11029KT 10SM CLR M11/M13 A2981 RMK AO2 PK WND 11035/0115 SLP093 T11061133 FZRANO

More Conditions Fewer Conditions

10-Day Weather Forecast

Almanac

Astronomy

Nov. 22, 2014 Rise Set
Actual Time
Civil Twilight
Nautical Twilight
Astronomical Twilight
Moon
Length of Visible Light
Length of Day
Tomorrow will be .
, % of the Moon is Illuminated

Today's Extremes

State Highs State Lows

Community

WunderPhotos

Upload Photos

1,772,973 photos uploaded!

WunderBlogs® & News

Nearby

Air Quality

  Air Quality AQ Index Pollutant
Not available.

Snow Depth

Station Depth Elevation

Earthquake Activity

City Distance Mag. Time & Date
Minimum magnitude displayed is 2.5.

Coastal Water Temperatures

Place Temperature

Nearby Weather Stations